Las Vegas, Nevada
Current Conditions -  °F | °C
As of 11:56 AM on Friday 31 Oct 2014 (Local Time) from KLAS Reporting Station
Few Clouds Few Clouds  
Wind Chill: 77°   Ceiling: Unl
Heat Index: 77°   Visibility: 10mi
Dew Point: 32°   Wind: 3mph
Humidity: 19%   Direction: NA
Pressure: 29.86"   Gusts: NA
Location:  36.17°N, 115.13°W
Report Text: KLAS 311856Z VRB03KT 10SM FEW180 FEW250 25/00 A2986 RMK AO2 SLP091 T02500000
Loading
Personal Weather Stations






























Interactive Weather Map
Tropical Storm Tracking
New forecast layout! Learn more

10-Day Weather Forecast

Advertisements
Track Severe Weather on mobile